sensor_id;sensor_type;location;lat;lon;timestamp;P1;durP1;ratioP1;P2;durP2;ratioP2
27303;SDS011;14791;52.392;13.092;2023-06-10T00:01:19;2.77;;;2.67;;
27303;SDS011;14791;52.392;13.092;2023-06-10T00:03:50;2.80;;;2.62;;
27303;SDS011;14791;52.392;13.092;2023-06-10T00:06:19;2.80;;;2.62;;
27303;SDS011;14791;52.392;13.092;2023-06-10T00:08:50;2.60;;;2.40;;
27303;SDS011;14791;52.392;13.092;2023-06-10T00:11:19;2.90;;;2.80;;
27303;SDS011;14791;52.392;13.092;2023-06-10T00:13:49;3.17;;;2.90;;
27303;SDS011;14791;52.392;13.092;2023-06-10T00:16:17;2.75;;;2.42;;
27303;SDS011;14791;52.392;13.092;2023-06-10T00:18:46;3.00;;;2.80;;
27303;SDS011;14791;52.392;13.092;2023-06-10T00:21:17;2.60;;;2.50;;
27303;SDS011;14791;52.392;13.092;2023-06-10T00:23:47;2.58;;;2.47;;
27303;SDS011;14791;52.392;13.092;2023-06-10T00:26:16;2.60;;;2.50;;
27303;SDS011;14791;52.392;13.092;2023-06-10T00:28:45;2.70;;;2.52;;
27303;SDS011;14791;52.392;13.092;2023-06-10T00:31:14;2.60;;;2.40;;
27303;SDS011;14791;52.392;13.092;2023-06-10T00:33:44;2.83;;;2.70;;
27303;SDS011;14791;52.392;13.092;2023-06-10T00:36:13;2.52;;;2.33;;
27303;SDS011;14791;52.392;13.092;2023-06-10T00:38:41;2.30;;;2.20;;
27303;SDS011;14791;52.392;13.092;2023-06-10T00:41:10;2.85;;;2.65;;
27303;SDS011;14791;52.392;13.092;2023-06-10T00:43:39;3.00;;;2.90;;
27303;SDS011;14791;52.392;13.092;2023-06-10T00:46:08;2.70;;;2.60;;
27303;SDS011;14791;52.392;13.092;2023-06-10T00:48:42;2.52;;;2.42;;
27303;SDS011;14791;52.392;13.092;2023-06-10T00:51:11;2.98;;;2.77;;
27303;SDS011;14791;52.392;13.092;2023-06-10T00:53:42;2.70;;;2.60;;
27303;SDS011;14791;52.392;13.092;2023-06-10T00:56:11;2.60;;;2.50;;
27303;SDS011;14791;52.392;13.092;2023-06-10T00:58:42;2.62;;;2.42;;
27303;SDS011;14791;52.392;13.092;2023-06-10T01:01:11;2.80;;;2.70;;
27303;SDS011;14791;52.392;13.092;2023-06-10T01:03:40;2.67;;;2.47;;
27303;SDS011;14791;52.392;13.092;2023-06-10T01:08:46;3.58;;;2.52;;
27303;SDS011;14791;52.392;13.092;2023-06-10T01:11:23;2.75;;;2.55;;
27303;SDS011;14791;52.392;13.092;2023-06-10T01:13:53;2.50;;;2.40;;
27303;SDS011;14791;52.392;13.092;2023-06-10T01:16:23;2.55;;;2.35;;
27303;SDS011;14791;52.392;13.092;2023-06-10T01:18:52;2.92;;;2.60;;
27303;SDS011;14791;52.392;13.092;2023-06-10T01:21:22;2.70;;;2.33;;
27303;SDS011;14791;52.392;13.092;2023-06-10T01:23:52;2.47;;;2.27;;
27303;SDS011;14791;52.392;13.092;2023-06-10T01:26:24;2.60;;;2.50;;
27303;SDS011;14791;52.392;13.092;2023-06-10T01:28:56;3.02;;;2.83;;
27303;SDS011;14791;52.392;13.092;2023-06-10T01:31:41;2.27;;;2.17;;
27303;SDS011;14791;52.392;13.092;2023-06-10T01:34:20;2.55;;;2.45;;
27303;SDS011;14791;52.392;13.092;2023-06-10T01:36:51;3.00;;;2.77;;
27303;SDS011;14791;52.392;13.092;2023-06-10T01:39:22;2.42;;;2.33;;
27303;SDS011;14791;52.392;13.092;2023-06-10T01:41:53;4.60;;;2.60;;
27303;SDS011;14791;52.392;13.092;2023-06-10T01:44:23;7.03;;;2.83;;
27303;SDS011;14791;52.392;13.092;2023-06-10T01:46:52;2.45;;;2.33;;
27303;SDS011;14791;52.392;13.092;2023-06-10T01:49:21;2.77;;;2.58;;
27303;SDS011;14791;52.392;13.092;2023-06-10T01:51:51;2.77;;;2.67;;
27303;SDS011;14791;52.392;13.092;2023-06-10T01:54:20;2.37;;;2.27;;
27303;SDS011;14791;52.392;13.092;2023-06-10T01:56:49;2.70;;;2.47;;
27303;SDS011;14791;52.392;13.092;2023-06-10T01:59:18;4.70;;;2.52;;
27303;SDS011;14791;52.392;13.092;2023-06-10T02:01:47;2.55;;;2.35;;
27303;SDS011;14791;52.392;13.092;2023-06-10T02:04:16;2.77;;;2.58;;
27303;SDS011;14791;52.392;13.092;2023-06-10T02:06:45;2.52;;;2.40;;
27303;SDS011;14791;52.392;13.092;2023-06-10T02:09:15;2.60;;;2.50;;
27303;SDS011;14791;52.392;13.092;2023-06-10T02:11:45;2.42;;;2.22;;
27303;SDS011;14791;52.392;13.092;2023-06-10T02:14:14;2.67;;;2.52;;
27303;SDS011;14791;52.392;13.092;2023-06-10T02:16:43;2.75;;;2.55;;
27303;SDS011;14791;52.392;13.092;2023-06-10T02:19:13;3.42;;;2.65;;
27303;SDS011;14791;52.392;13.092;2023-06-10T02:21:43;2.52;;;2.42;;
27303;SDS011;14791;52.392;13.092;2023-06-10T02:24:11;2.70;;;2.60;;
27303;SDS011;14791;52.392;13.092;2023-06-10T02:26:40;2.98;;;2.77;;
27303;SDS011;14791;52.392;13.092;2023-06-10T02:29:09;2.77;;;2.58;;
27303;SDS011;14791;52.392;13.092;2023-06-10T02:31:39;2.83;;;2.62;;
27303;SDS011;14791;52.392;13.092;2023-06-10T02:34:08;2.62;;;2.45;;
27303;SDS011;14791;52.392;13.092;2023-06-10T02:36:37;2.77;;;2.58;;
27303;SDS011;14791;52.392;13.092;2023-06-10T02:39:08;2.85;;;2.65;;
27303;SDS011;14791;52.392;13.092;2023-06-10T02:41:37;2.65;;;2.37;;
27303;SDS011;14791;52.392;13.092;2023-06-10T02:44:06;3.22;;;3.02;;
27303;SDS011;14791;52.392;13.092;2023-06-10T02:46:35;2.65;;;2.45;;
27303;SDS011;14791;52.392;13.092;2023-06-10T02:49:04;2.98;;;2.58;;
27303;SDS011;14791;52.392;13.092;2023-06-10T02:51:34;2.80;;;2.60;;
27303;SDS011;14791;52.392;13.092;2023-06-10T02:54:04;2.60;;;2.50;;
27303;SDS011;14791;52.392;13.092;2023-06-10T02:56:34;2.83;;;2.72;;
27303;SDS011;14791;52.392;13.092;2023-06-10T02:59:04;3.17;;;2.75;;
27303;SDS011;14791;52.392;13.092;2023-06-10T03:01:34;2.98;;;2.62;;
27303;SDS011;14791;52.392;13.092;2023-06-10T03:04:06;2.60;;;2.50;;
27303;SDS011;14791;52.392;13.092;2023-06-10T03:06:36;2.60;;;2.40;;
27303;SDS011;14791;52.392;13.092;2023-06-10T03:09:10;2.80;;;2.33;;
27303;SDS011;14791;52.392;13.092;2023-06-10T03:11:39;3.42;;;2.47;;
27303;SDS011;14791;52.392;13.092;2023-06-10T03:14:09;2.77;;;2.62;;
27303;SDS011;14791;52.392;13.092;2023-06-10T03:16:38;2.25;;;2.15;;
27303;SDS011;14791;52.392;13.092;2023-06-10T03:19:11;2.95;;;2.67;;
27303;SDS011;14791;52.392;13.092;2023-06-10T03:21:43;3.25;;;2.45;;
27303;SDS011;14791;52.392;13.092;2023-06-10T03:24:13;2.45;;;2.35;;
27303;SDS011;14791;52.392;13.092;2023-06-10T03:26:43;2.85;;;2.75;;
27303;SDS011;14791;52.392;13.092;2023-06-10T03:29:14;3.40;;;3.08;;
27303;SDS011;14791;52.392;13.092;2023-06-10T03:31:43;2.70;;;2.60;;
27303;SDS011;14791;52.392;13.092;2023-06-10T03:34:13;3.10;;;2.90;;
27303;SDS011;14791;52.392;13.092;2023-06-10T03:36:42;3.62;;;2.75;;
27303;SDS011;14791;52.392;13.092;2023-06-10T03:39:11;2.95;;;2.75;;
27303;SDS011;14791;52.392;13.092;2023-06-10T03:41:41;2.83;;;2.62;;
27303;SDS011;14791;52.392;13.092;2023-06-10T03:44:10;3.27;;;2.72;;
27303;SDS011;14791;52.392;13.092;2023-06-10T03:46:40;2.70;;;2.60;;
27303;SDS011;14791;52.392;13.092;2023-06-10T03:49:10;2.65;;;2.55;;
27303;SDS011;14791;52.392;13.092;2023-06-10T03:51:39;2.95;;;2.75;;
27303;SDS011;14791;52.392;13.092;2023-06-10T03:54:08;2.75;;;2.65;;
27303;SDS011;14791;52.392;13.092;2023-06-10T03:56:37;3.15;;;2.95;;
27303;SDS011;14791;52.392;13.092;2023-06-10T03:59:07;2.83;;;2.60;;
27303;SDS011;14791;52.392;13.092;2023-06-10T04:01:36;3.37;;;3.00;;
27303;SDS011;14791;52.392;13.092;2023-06-10T04:04:06;2.77;;;2.65;;
27303;SDS011;14791;52.392;13.092;2023-06-10T04:06:35;2.83;;;2.72;;
27303;SDS011;14791;52.392;13.092;2023-06-10T04:09:04;2.83;;;2.62;;
27303;SDS011;14791;52.392;13.092;2023-06-10T04:11:34;2.95;;;2.75;;
27303;SDS011;14791;52.392;13.092;2023-06-10T04:14:03;2.83;;;2.67;;
27303;SDS011;14791;52.392;13.092;2023-06-10T04:16:33;3.35;;;2.95;;
27303;SDS011;14791;52.392;13.092;2023-06-10T04:19:02;3.20;;;3.00;;
27303;SDS011;14791;52.392;13.092;2023-06-10T04:21:31;2.55;;;2.45;;
27303;SDS011;14791;52.392;13.092;2023-06-10T04:24:00;2.65;;;2.45;;
27303;SDS011;14791;52.392;13.092;2023-06-10T04:26:30;2.83;;;2.62;;
27303;SDS011;14791;52.392;13.092;2023-06-10T04:28:58;3.45;;;3.15;;
27303;SDS011;14791;52.392;13.092;2023-06-10T04:31:28;2.80;;;2.45;;
27303;SDS011;14791;52.392;13.092;2023-06-10T04:33:59;3.10;;;2.90;;
27303;SDS011;14791;52.392;13.092;2023-06-10T04:36:29;3.02;;;2.75;;
27303;SDS011;14791;52.392;13.092;2023-06-10T04:38:58;3.33;;;2.98;;
27303;SDS011;14791;52.392;13.092;2023-06-10T04:41:29;3.10;;;2.90;;
27303;SDS011;14791;52.392;13.092;2023-06-10T04:43:58;3.05;;;2.92;;
27303;SDS011;14791;52.392;13.092;2023-06-10T04:46:27;3.10;;;3.00;;
27303;SDS011;14791;52.392;13.092;2023-06-10T04:48:58;3.17;;;2.92;;
27303;SDS011;14791;52.392;13.092;2023-06-10T04:51:27;2.95;;;2.85;;
27303;SDS011;14791;52.392;13.092;2023-06-10T04:53:56;3.02;;;2.83;;
27303;SDS011;14791;52.392;13.092;2023-06-10T04:56:25;3.00;;;2.80;;
27303;SDS011;14791;52.392;13.092;2023-06-10T04:58:54;3.05;;;2.83;;
27303;SDS011;14791;52.392;13.092;2023-06-10T05:01:23;3.60;;;3.40;;
27303;SDS011;14791;52.392;13.092;2023-06-10T05:03:52;3.33;;;3.12;;
27303;SDS011;14791;52.392;13.092;2023-06-10T05:06:21;3.45;;;2.67;;
27303;SDS011;14791;52.392;13.092;2023-06-10T05:08:50;3.45;;;3.15;;
27303;SDS011;14791;52.392;13.092;2023-06-10T05:11:19;3.35;;;3.15;;
27303;SDS011;14791;52.392;13.092;2023-06-10T05:13:48;3.12;;;2.92;;
27303;SDS011;14791;52.392;13.092;2023-06-10T05:16:17;4.10;;;3.05;;
27303;SDS011;14791;52.392;13.092;2023-06-10T05:18:46;3.72;;;3.52;;
27303;SDS011;14791;52.392;13.092;2023-06-10T05:21:16;2.85;;;2.65;;
27303;SDS011;14791;52.392;13.092;2023-06-10T05:23:45;3.47;;;3.25;;
27303;SDS011;14791;52.392;13.092;2023-06-10T05:26:13;5.85;;;3.17;;
27303;SDS011;14791;52.392;13.092;2023-06-10T05:28:42;3.72;;;3.52;;
27303;SDS011;14791;52.392;13.092;2023-06-10T05:31:11;4.10;;;3.80;;
27303;SDS011;14791;52.392;13.092;2023-06-10T05:33:40;3.62;;;3.47;;
27303;SDS011;14791;52.392;13.092;2023-06-10T05:36:09;3.58;;;3.27;;
27303;SDS011;14791;52.392;13.092;2023-06-10T05:38:38;3.52;;;3.22;;
27303;SDS011;14791;52.392;13.092;2023-06-10T05:41:07;3.50;;;3.33;;
27303;SDS011;14791;52.392;13.092;2023-06-10T05:43:35;3.55;;;3.25;;
27303;SDS011;14791;52.392;13.092;2023-06-10T05:46:04;3.50;;;3.30;;
27303;SDS011;14791;52.392;13.092;2023-06-10T05:48:33;3.62;;;3.42;;
27303;SDS011;14791;52.392;13.092;2023-06-10T05:51:02;3.72;;;3.52;;
27303;SDS011;14791;52.392;13.092;2023-06-10T05:53:31;3.52;;;3.40;;
27303;SDS011;14791;52.392;13.092;2023-06-10T05:56:00;3.65;;;3.45;;
27303;SDS011;14791;52.392;13.092;2023-06-10T05:58:29;3.72;;;3.42;;
27303;SDS011;14791;52.392;13.092;2023-06-10T06:00:58;3.55;;;3.35;;
27303;SDS011;14791;52.392;13.092;2023-06-10T06:03:27;3.52;;;3.33;;
27303;SDS011;14791;52.392;13.092;2023-06-10T06:05:56;3.65;;;3.45;;
27303;SDS011;14791;52.392;13.092;2023-06-10T06:08:25;3.75;;;3.52;;
27303;SDS011;14791;52.392;13.092;2023-06-10T06:10:54;3.90;;;3.60;;
27303;SDS011;14791;52.392;13.092;2023-06-10T06:13:23;3.37;;;3.27;;
27303;SDS011;14791;52.392;13.092;2023-06-10T06:15:52;3.75;;;3.45;;
27303;SDS011;14791;52.392;13.092;2023-06-10T06:18:20;3.60;;;3.45;;
27303;SDS011;14791;52.392;13.092;2023-06-10T06:20:49;4.00;;;3.80;;
27303;SDS011;14791;52.392;13.092;2023-06-10T06:23:18;3.83;;;3.62;;
27303;SDS011;14791;52.392;13.092;2023-06-10T06:25:47;3.85;;;3.65;;
27303;SDS011;14791;52.392;13.092;2023-06-10T06:28:16;3.92;;;3.75;;
27303;SDS011;14791;52.392;13.092;2023-06-10T06:30:47;3.65;;;3.45;;
27303;SDS011;14791;52.392;13.092;2023-06-10T06:33:16;3.45;;;3.25;;
27303;SDS011;14791;52.392;13.092;2023-06-10T06:35:45;3.67;;;3.58;;
27303;SDS011;14791;52.392;13.092;2023-06-10T06:38:14;3.72;;;3.52;;
27303;SDS011;14791;52.392;13.092;2023-06-10T06:40:44;3.58;;;3.47;;
27303;SDS011;14791;52.392;13.092;2023-06-10T06:43:13;4.35;;;4.05;;
27303;SDS011;14791;52.392;13.092;2023-06-10T06:45:52;4.30;;;3.92;;
27303;SDS011;14791;52.392;13.092;2023-06-10T06:48:21;4.05;;;3.85;;
27303;SDS011;14791;52.392;13.092;2023-06-10T06:50:50;4.12;;;3.85;;
27303;SDS011;14791;52.392;13.092;2023-06-10T06:53:19;4.08;;;3.92;;
27303;SDS011;14791;52.392;13.092;2023-06-10T06:55:48;3.80;;;3.50;;
27303;SDS011;14791;52.392;13.092;2023-06-10T06:58:17;3.17;;;3.08;;
27303;SDS011;14791;52.392;13.092;2023-06-10T07:00:46;3.85;;;3.52;;
27303;SDS011;14791;52.392;13.092;2023-06-10T07:03:15;3.35;;;3.25;;
27303;SDS011;14791;52.392;13.092;2023-06-10T07:05:44;3.70;;;3.50;;
27303;SDS011;14791;52.392;13.092;2023-06-10T07:08:13;4.78;;;4.10;;
27303;SDS011;14791;52.392;13.092;2023-06-10T07:10:42;3.80;;;3.62;;
27303;SDS011;14791;52.392;13.092;2023-06-10T07:13:11;3.90;;;3.70;;
27303;SDS011;14791;52.392;13.092;2023-06-10T07:15:40;4.40;;;4.00;;
27303;SDS011;14791;52.392;13.092;2023-06-10T07:18:08;3.60;;;3.42;;
27303;SDS011;14791;52.392;13.092;2023-06-10T07:20:37;4.15;;;3.85;;
27303;SDS011;14791;52.392;13.092;2023-06-10T07:23:06;3.45;;;3.30;;
27303;SDS011;14791;52.392;13.092;2023-06-10T07:25:35;4.15;;;3.95;;
27303;SDS011;14791;52.392;13.092;2023-06-10T07:28:04;4.37;;;4.10;;
27303;SDS011;14791;52.392;13.092;2023-06-10T07:30:33;4.03;;;3.92;;
27303;SDS011;14791;52.392;13.092;2023-06-10T07:33:02;3.65;;;3.52;;
27303;SDS011;14791;52.392;13.092;2023-06-10T07:35:32;6.40;;;4.10;;
27303;SDS011;14791;52.392;13.092;2023-06-10T07:38:01;3.85;;;3.65;;
27303;SDS011;14791;52.392;13.092;2023-06-10T07:40:30;4.17;;;4.00;;
27303;SDS011;14791;52.392;13.092;2023-06-10T07:42:59;3.80;;;3.70;;
27303;SDS011;14791;52.392;13.092;2023-06-10T07:45:28;4.47;;;4.17;;
27303;SDS011;14791;52.392;13.092;2023-06-10T07:47:57;3.70;;;3.60;;
27303;SDS011;14791;52.392;13.092;2023-06-10T07:50:26;4.05;;;3.90;;
27303;SDS011;14791;52.392;13.092;2023-06-10T07:52:55;4.75;;;3.98;;
27303;SDS011;14791;52.392;13.092;2023-06-10T07:55:24;4.35;;;4.05;;
27303;SDS011;14791;52.392;13.092;2023-06-10T07:57:56;4.50;;;4.22;;
27303;SDS011;14791;52.392;13.092;2023-06-10T08:00:25;4.58;;;4.47;;
27303;SDS011;14791;52.392;13.092;2023-06-10T08:02:54;3.92;;;3.70;;
27303;SDS011;14791;52.392;13.092;2023-06-10T08:05:23;4.83;;;4.42;;
27303;SDS011;14791;52.392;13.092;2023-06-10T08:07:51;4.10;;;3.87;;
27303;SDS011;14791;52.392;13.092;2023-06-10T08:10:20;4.37;;;4.17;;
27303;SDS011;14791;52.392;13.092;2023-06-10T08:12:49;4.58;;;4.37;;
27303;SDS011;14791;52.392;13.092;2023-06-10T08:15:18;4.70;;;4.50;;
27303;SDS011;14791;52.392;13.092;2023-06-10T08:17:47;4.10;;;3.98;;
27303;SDS011;14791;52.392;13.092;2023-06-10T08:20:16;4.70;;;4.40;;
27303;SDS011;14791;52.392;13.092;2023-06-10T08:22:45;3.90;;;3.72;;
27303;SDS011;14791;52.392;13.092;2023-06-10T08:25:14;4.25;;;4.05;;
27303;SDS011;14791;52.392;13.092;2023-06-10T08:27:43;4.35;;;4.15;;
27303;SDS011;14791;52.392;13.092;2023-06-10T08:30:12;4.15;;;3.95;;
27303;SDS011;14791;52.392;13.092;2023-06-10T08:32:41;4.28;;;4.08;;
27303;SDS011;14791;52.392;13.092;2023-06-10T08:35:10;4.28;;;4.08;;
27303;SDS011;14791;52.392;13.092;2023-06-10T08:37:39;4.90;;;4.40;;
27303;SDS011;14791;52.392;13.092;2023-06-10T08:40:09;3.40;;;3.30;;
27303;SDS011;14791;52.392;13.092;2023-06-10T08:42:52;4.60;;;4.20;;
27303;SDS011;14791;52.392;13.092;2023-06-10T08:45:15;4.08;;;3.87;;
27303;SDS011;14791;52.392;13.092;2023-06-10T08:47:46;4.00;;;3.90;;
27303;SDS011;14791;52.392;13.092;2023-06-10T08:50:21;4.60;;;4.30;;
27303;SDS011;14791;52.392;13.092;2023-06-10T08:52:53;4.62;;;4.37;;
27303;SDS011;14791;52.392;13.092;2023-06-10T08:55:23;4.25;;;3.95;;
27303;SDS011;14791;52.392;13.092;2023-06-10T08:57:57;4.67;;;4.47;;
27303;SDS011;14791;52.392;13.092;2023-06-10T09:00:28;4.00;;;3.90;;
27303;SDS011;14791;52.392;13.092;2023-06-10T09:02:58;4.05;;;3.87;;
27303;SDS011;14791;52.392;13.092;2023-06-10T09:05:30;3.62;;;3.42;;
27303;SDS011;14791;52.392;13.092;2023-06-10T09:08:10;4.45;;;4.25;;
27303;SDS011;14791;52.392;13.092;2023-06-10T09:10:36;4.60;;;4.50;;
27303;SDS011;14791;52.392;13.092;2023-06-10T09:13:05;4.65;;;4.40;;
27303;SDS011;14791;52.392;13.092;2023-06-10T09:15:34;3.87;;;3.77;;
27303;SDS011;14791;52.392;13.092;2023-06-10T09:18:03;4.12;;;4.03;;
27303;SDS011;14791;52.392;13.092;2023-06-10T09:20:32;3.95;;;3.77;;
27303;SDS011;14791;52.392;13.092;2023-06-10T09:23:02;3.95;;;3.83;;
27303;SDS011;14791;52.392;13.092;2023-06-10T09:25:41;4.30;;;4.10;;
27303;SDS011;14791;52.392;13.092;2023-06-10T09:28:12;4.15;;;3.95;;
27303;SDS011;14791;52.392;13.092;2023-06-10T09:30:45;4.10;;;3.90;;
27303;SDS011;14791;52.392;13.092;2023-06-10T09:33:14;4.55;;;4.37;;
27303;SDS011;14791;52.392;13.092;2023-06-10T09:35:45;4.47;;;4.12;;
27303;SDS011;14791;52.392;13.092;2023-06-10T09:38:19;4.33;;;4.15;;
27303;SDS011;14791;52.392;13.092;2023-06-10T09:40:49;4.00;;;3.87;;
27303;SDS011;14791;52.392;13.092;2023-06-10T09:43:19;4.28;;;4.08;;
27303;SDS011;14791;52.392;13.092;2023-06-10T09:45:49;4.10;;;4.00;;
27303;SDS011;14791;52.392;13.092;2023-06-10T09:48:22;4.62;;;4.42;;
27303;SDS011;14791;52.392;13.092;2023-06-10T09:50:51;4.25;;;4.15;;
27303;SDS011;14791;52.392;13.092;2023-06-10T09:53:20;4.50;;;4.35;;
27303;SDS011;14791;52.392;13.092;2023-06-10T09:55:49;4.72;;;4.42;;
27303;SDS011;14791;52.392;13.092;2023-06-10T09:58:33;4.85;;;4.65;;
27303;SDS011;14791;52.392;13.092;2023-06-10T10:01:08;4.28;;;3.98;;
27303;SDS011;14791;52.392;13.092;2023-06-10T10:03:50;4.12;;;3.90;;
27303;SDS011;14791;52.392;13.092;2023-06-10T10:06:15;4.25;;;4.05;;
27303;SDS011;14791;52.392;13.092;2023-06-10T10:08:49;4.87;;;4.42;;
27303;SDS011;14791;52.392;13.092;2023-06-10T10:11:24;4.53;;;4.33;;
27303;SDS011;14791;52.392;13.092;2023-06-10T10:13:50;4.78;;;4.58;;
27303;SDS011;14791;52.392;13.092;2023-06-10T10:16:21;4.80;;;4.50;;
27303;SDS011;14791;52.392;13.092;2023-06-10T10:19:23;4.37;;;4.03;;
27303;SDS011;14791;52.392;13.092;2023-06-10T10:21:54;4.55;;;4.35;;
27303;SDS011;14791;52.392;13.092;2023-06-10T10:24:33;4.55;;;4.42;;
27303;SDS011;14791;52.392;13.092;2023-06-10T10:27:04;4.90;;;4.70;;
27303;SDS011;14791;52.392;13.092;2023-06-10T10:29:41;4.33;;;4.08;;
27303;SDS011;14791;52.392;13.092;2023-06-10T10:32:06;3.92;;;3.83;;
27303;SDS011;14791;52.392;13.092;2023-06-10T10:37:19;4.75;;;4.33;;
27303;SDS011;14791;52.392;13.092;2023-06-10T10:39:48;4.17;;;3.98;;
27303;SDS011;14791;52.392;13.092;2023-06-10T10:42:18;4.30;;;4.20;;
27303;SDS011;14791;52.392;13.092;2023-06-10T10:44:47;4.28;;;4.17;;
27303;SDS011;14791;52.392;13.092;2023-06-10T10:47:20;4.28;;;4.08;;
27303;SDS011;14791;52.392;13.092;2023-06-10T10:49:50;4.12;;;3.92;;
27303;SDS011;14791;52.392;13.092;2023-06-10T10:52:24;4.25;;;4.05;;
27303;SDS011;14791;52.392;13.092;2023-06-10T10:54:54;3.92;;;3.75;;
27303;SDS011;14791;52.392;13.092;2023-06-10T10:57:23;3.75;;;3.65;;
27303;SDS011;14791;52.392;13.092;2023-06-10T10:59:54;4.35;;;4.25;;
27303;SDS011;14791;52.392;13.092;2023-06-10T11:05:14;4.53;;;4.37;;
27303;SDS011;14791;52.392;13.092;2023-06-10T11:07:54;3.90;;;3.70;;
27303;SDS011;14791;52.392;13.092;2023-06-10T11:10:30;4.10;;;3.98;;
27303;SDS011;14791;52.392;13.092;2023-06-10T11:13:21;4.33;;;4.12;;
27303;SDS011;14791;52.392;13.092;2023-06-10T11:15:44;4.25;;;4.00;;
27303;SDS011;14791;52.392;13.092;2023-06-10T11:18:14;4.08;;;3.87;;
27303;SDS011;14791;52.392;13.092;2023-06-10T11:20:53;3.50;;;3.40;;
27303;SDS011;14791;52.392;13.092;2023-06-10T11:23:32;3.50;;;3.40;;
27303;SDS011;14791;52.392;13.092;2023-06-10T11:31:25;3.40;;;3.30;;
27303;SDS011;14791;52.392;13.092;2023-06-10T11:33:56;3.35;;;3.15;;
27303;SDS011;14791;52.392;13.092;2023-06-10T11:36:30;3.30;;;3.20;;
27303;SDS011;14791;52.392;13.092;2023-06-10T11:39:01;2.92;;;2.83;;
27303;SDS011;14791;52.392;13.092;2023-06-10T11:41:32;3.40;;;3.30;;
27303;SDS011;14791;52.392;13.092;2023-06-10T11:44:03;3.15;;;3.05;;
27303;SDS011;14791;52.392;13.092;2023-06-10T11:46:33;3.27;;;2.98;;
27303;SDS011;14791;52.392;13.092;2023-06-10T11:49:03;2.95;;;2.85;;
27303;SDS011;14791;52.392;13.092;2023-06-10T11:51:34;2.83;;;2.72;;
27303;SDS011;14791;52.392;13.092;2023-06-10T11:54:04;3.20;;;3.10;;
27303;SDS011;14791;52.392;13.092;2023-06-10T11:56:34;3.25;;;3.05;;
27303;SDS011;14791;52.392;13.092;2023-06-10T11:59:04;3.08;;;2.98;;
27303;SDS011;14791;52.392;13.092;2023-06-10T12:01:38;3.20;;;3.10;;
27303;SDS011;14791;52.392;13.092;2023-06-10T12:04:12;3.83;;;3.62;;
27303;SDS011;14791;52.392;13.092;2023-06-10T12:06:47;3.62;;;3.52;;
27303;SDS011;14791;52.392;13.092;2023-06-10T12:09:20;3.45;;;3.35;;
27303;SDS011;14791;52.392;13.092;2023-06-10T12:17:23;3.60;;;3.45;;
27303;SDS011;14791;52.392;13.092;2023-06-10T12:19:53;3.58;;;3.37;;
27303;SDS011;14791;52.392;13.092;2023-06-10T12:22:22;3.50;;;3.40;;
27303;SDS011;14791;52.392;13.092;2023-06-10T12:24:58;3.58;;;3.47;;
27303;SDS011;14791;52.392;13.092;2023-06-10T12:27:29;3.50;;;3.40;;
27303;SDS011;14791;52.392;13.092;2023-06-10T12:29:59;4.12;;;4.03;;
27303;SDS011;14791;52.392;13.092;2023-06-10T12:32:44;4.03;;;3.83;;
27303;SDS011;14791;52.392;13.092;2023-06-10T12:35:16;3.62;;;3.52;;
27303;SDS011;14791;52.392;13.092;2023-06-10T12:37:56;3.47;;;3.37;;
27303;SDS011;14791;52.392;13.092;2023-06-10T12:40:32;3.87;;;3.75;;
27303;SDS011;14791;52.392;13.092;2023-06-10T12:43:03;3.80;;;3.70;;
27303;SDS011;14791;52.392;13.092;2023-06-10T12:45:35;3.00;;;2.95;;
27303;SDS011;14791;52.392;13.092;2023-06-10T12:48:07;3.60;;;3.30;;
27303;SDS011;14791;52.392;13.092;2023-06-10T12:53:24;3.47;;;3.37;;
27303;SDS011;14791;52.392;13.092;2023-06-10T12:55:56;3.00;;;2.95;;
27303;SDS011;14791;52.392;13.092;2023-06-10T12:58:26;3.12;;;3.02;;
27303;SDS011;14791;52.392;13.092;2023-06-10T13:00:55;3.27;;;3.17;;
27303;SDS011;14791;52.392;13.092;2023-06-10T13:03:24;3.70;;;3.60;;
27303;SDS011;14791;52.392;13.092;2023-06-10T13:05:53;3.33;;;3.22;;
27303;SDS011;14791;52.392;13.092;2023-06-10T13:08:22;3.72;;;3.62;;
27303;SDS011;14791;52.392;13.092;2023-06-10T13:10:51;3.75;;;3.55;;
27303;SDS011;14791;52.392;13.092;2023-06-10T13:13:20;3.52;;;3.40;;
27303;SDS011;14791;52.392;13.092;2023-06-10T13:15:49;3.08;;;2.87;;
27303;SDS011;14791;52.392;13.092;2023-06-10T13:18:18;3.45;;;3.35;;
27303;SDS011;14791;52.392;13.092;2023-06-10T13:20:47;3.67;;;3.58;;
27303;SDS011;14791;52.392;13.092;2023-06-10T13:23:16;3.40;;;3.30;;
27303;SDS011;14791;52.392;13.092;2023-06-10T13:25:45;3.83;;;3.72;;
27303;SDS011;14791;52.392;13.092;2023-06-10T13:28:14;3.70;;;3.60;;
27303;SDS011;14791;52.392;13.092;2023-06-10T13:30:43;3.55;;;3.37;;
27303;SDS011;14791;52.392;13.092;2023-06-10T13:33:12;3.80;;;3.70;;
27303;SDS011;14791;52.392;13.092;2023-06-10T13:35:41;3.60;;;3.50;;
27303;SDS011;14791;52.392;13.092;2023-06-10T13:38:10;3.67;;;3.58;;
27303;SDS011;14791;52.392;13.092;2023-06-10T13:40:39;3.50;;;3.40;;
27303;SDS011;14791;52.392;13.092;2023-06-10T13:43:08;3.77;;;3.67;;
27303;SDS011;14791;52.392;13.092;2023-06-10T13:45:37;3.85;;;3.75;;
27303;SDS011;14791;52.392;13.092;2023-06-10T13:48:06;3.85;;;3.75;;
27303;SDS011;14791;52.392;13.092;2023-06-10T13:50:35;4.30;;;4.10;;
27303;SDS011;14791;52.392;13.092;2023-06-10T13:53:05;4.42;;;4.22;;
27303;SDS011;14791;52.392;13.092;2023-06-10T13:55:34;4.00;;;3.90;;
27303;SDS011;14791;52.392;13.092;2023-06-10T13:58:03;3.80;;;3.70;;
27303;SDS011;14791;52.392;13.092;2023-06-10T14:00:32;4.78;;;4.58;;
27303;SDS011;14791;52.392;13.092;2023-06-10T14:03:01;4.53;;;4.37;;
27303;SDS011;14791;52.392;13.092;2023-06-10T14:05:30;4.30;;;4.20;;
27303;SDS011;14791;52.392;13.092;2023-06-10T14:08:00;4.20;;;4.10;;
27303;SDS011;14791;52.392;13.092;2023-06-10T14:10:29;4.87;;;4.78;;
27303;SDS011;14791;52.392;13.092;2023-06-10T14:12:58;4.25;;;4.15;;
27303;SDS011;14791;52.392;13.092;2023-06-10T14:15:27;4.33;;;4.22;;
27303;SDS011;14791;52.392;13.092;2023-06-10T14:17:57;4.60;;;4.15;;
27303;SDS011;14791;52.392;13.092;2023-06-10T14:20:26;4.78;;;4.65;;
27303;SDS011;14791;52.392;13.092;2023-06-10T14:22:57;3.85;;;3.65;;
27303;SDS011;14791;52.392;13.092;2023-06-10T14:25:26;4.10;;;3.95;;
27303;SDS011;14791;52.392;13.092;2023-06-10T14:27:55;6.17;;;4.20;;
27303;SDS011;14791;52.392;13.092;2023-06-10T14:30:25;5.25;;;4.75;;
27303;SDS011;14791;52.392;13.092;2023-06-10T14:32:54;4.00;;;3.60;;
27303;SDS011;14791;52.392;13.092;2023-06-10T14:35:22;3.62;;;3.52;;
27303;SDS011;14791;52.392;13.092;2023-06-10T14:37:51;3.08;;;2.87;;
27303;SDS011;14791;52.392;13.092;2023-06-10T14:40:20;2.80;;;2.70;;
27303;SDS011;14791;52.392;13.092;2023-06-10T14:42:51;3.05;;;2.95;;
27303;SDS011;14791;52.392;13.092;2023-06-10T14:45:20;2.92;;;2.72;;
27303;SDS011;14791;52.392;13.092;2023-06-10T14:47:49;3.22;;;3.12;;
27303;SDS011;14791;52.392;13.092;2023-06-10T14:50:18;3.00;;;2.90;;
27303;SDS011;14791;52.392;13.092;2023-06-10T14:52:47;3.40;;;3.20;;
27303;SDS011;14791;52.392;13.092;2023-06-10T14:55:15;2.70;;;2.70;;
27303;SDS011;14791;52.392;13.092;2023-06-10T14:57:44;3.47;;;3.37;;
27303;SDS011;14791;52.392;13.092;2023-06-10T15:00:14;3.85;;;3.65;;
27303;SDS011;14791;52.392;13.092;2023-06-10T15:02:45;4.47;;;4.37;;
27303;SDS011;14791;52.392;13.092;2023-06-10T15:05:15;5.87;;;5.65;;
27303;SDS011;14791;52.392;13.092;2023-06-10T15:07:45;4.15;;;4.05;;
27303;SDS011;14791;52.392;13.092;2023-06-10T15:10:15;4.60;;;4.50;;
27303;SDS011;14791;52.392;13.092;2023-06-10T15:12:44;3.72;;;3.62;;